createdAt,value
2023-01-27T00:03:51.569Z,68.04
2023-01-27T00:08:53.693Z,67.25
2023-01-27T00:13:56.174Z,67.66
2023-01-27T00:18:58.508Z,67.28
2023-01-27T00:24:19.359Z,68.50
2023-01-27T00:29:21.669Z,70.78
2023-01-27T00:34:23.719Z,72.64
2023-01-27T00:39:25.791Z,71.75
2023-01-27T00:44:27.909Z,70.34
2023-01-27T00:49:30.108Z,69.84
2023-01-27T00:54:32.361Z,69.26
2023-01-27T00:59:34.511Z,69.05
2023-01-27T01:04:36.686Z,68.53
2023-01-27T01:09:38.744Z,69.82
2023-01-27T01:14:40.938Z,69.43
2023-01-27T01:19:43.093Z,69.32
2023-01-27T01:24:45.206Z,68.75
2023-01-27T01:29:47.503Z,68.88
2023-01-27T01:34:49.560Z,69.33
2023-01-27T01:39:51.659Z,68.56
2023-01-27T01:45:31.844Z,68.61
2023-01-27T01:50:35.612Z,69.43
2023-01-27T01:55:38.933Z,70.29
2023-01-27T02:00:41.594Z,70.42
2023-01-27T02:05:45.789Z,70.07
2023-01-27T02:10:48.547Z,69.57
2023-01-27T02:15:54.140Z,68.72
2023-01-27T02:20:57.169Z,67.88
2023-01-27T02:26:36.685Z,67.28
2023-01-27T02:31:39.647Z,67.55
2023-01-27T02:36:48.094Z,67.62
2023-01-27T02:41:57.288Z,66.86
2023-01-27T02:46:59.534Z,66.46
2023-01-27T02:52:01.945Z,66.31
2023-01-27T02:57:04.093Z,66.72
2023-01-27T03:02:07.452Z,67.11
2023-01-27T03:07:09.640Z,68.19
2023-01-27T03:12:20.905Z,68.82
2023-01-27T03:17:41.582Z,68.68
2023-01-27T03:22:43.629Z,68.44
2023-01-27T03:27:46.073Z,69.27
2023-01-27T03:32:54.749Z,68.29
2023-01-27T03:38:15.524Z,68.00
2023-01-27T03:43:36.425Z,67.54
2023-01-27T03:48:38.855Z,67.69
2023-01-27T03:53:40.976Z,67.37
2023-01-27T03:58:44.171Z,67.47
2023-01-27T04:04:05.914Z,67.03
2023-01-27T04:09:09.778Z,66.75
2023-01-27T04:14:13.755Z,66.57
2023-01-27T04:19:15.917Z,66.89
2023-01-27T04:24:22.969Z,66.51
2023-01-27T04:29:28.324Z,67.44
2023-01-27T04:34:30.773Z,67.41
2023-01-27T04:39:33.556Z,68.00
2023-01-27T04:44:35.719Z,67.00
2023-01-27T04:49:37.810Z,67.38
2023-01-27T04:54:40.029Z,67.18
2023-01-27T04:59:42.155Z,66.92
2023-01-27T05:04:44.373Z,67.10
2023-01-27T05:09:46.438Z,66.93
2023-01-27T05:14:48.567Z,67.16
2023-01-27T05:19:50.901Z,66.96
2023-01-27T05:24:52.975Z,67.42
2023-01-27T05:29:55.253Z,67.16
2023-01-27T05:34:57.369Z,67.00
2023-01-27T05:40:02.738Z,66.97
2023-01-27T05:45:05.245Z,67.22
2023-01-27T05:50:08.058Z,66.79
2023-01-27T05:55:10.422Z,67.51
2023-01-27T06:00:12.988Z,67.44
2023-01-27T06:05:15.667Z,67.75
2023-01-27T06:10:18.320Z,68.45
2023-01-27T06:15:20.437Z,69.29
2023-01-27T06:20:22.583Z,69.43
2023-01-27T06:25:24.721Z,69.39
2023-01-27T06:30:27.076Z,68.90
2023-01-27T06:35:29.836Z,68.15
2023-01-27T06:40:33.543Z,68.39
2023-01-27T06:45:35.717Z,67.72
2023-01-27T06:50:38.068Z,67.49
2023-01-27T06:55:42.084Z,68.74
2023-01-27T07:00:44.858Z,70.53
2023-01-27T07:05:46.984Z,72.57
2023-01-27T07:10:49.166Z,73.55
2023-01-27T07:16:00.726Z,74.83
2023-01-27T07:21:06.014Z,75.01
2023-01-27T07:26:23.326Z,73.37
2023-01-27T07:31:27.239Z,71.98
2023-01-27T07:36:29.395Z,70.15
2023-01-27T07:41:31.703Z,69.20
2023-01-27T07:46:33.865Z,69.54
2023-01-27T07:51:36.067Z,70.99
2023-01-27T07:56:38.665Z,71.40
2023-01-27T08:01:42.149Z,71.13
2023-01-27T08:06:44.577Z,70.94
2023-01-27T08:11:46.991Z,70.56
2023-01-27T08:16:49.245Z,72.52
2023-01-27T08:21:51.604Z,71.56
2023-01-27T08:26:53.852Z,72.45
2023-01-27T08:31:56.054Z,71.69
2023-01-27T08:36:58.209Z,70.57
2023-01-27T08:42:01.082Z,69.79
2023-01-27T08:47:03.301Z,68.79
2023-01-27T08:52:05.554Z,68.41
2023-01-27T08:57:07.706Z,67.39
2023-01-27T09:02:13.113Z,67.91
2023-01-27T09:07:15.467Z,66.94
2023-01-27T09:12:17.847Z,66.63
2023-01-27T09:17:20.224Z,66.74
2023-01-27T09:22:22.326Z,66.58
2023-01-27T09:27:38.070Z,66.16
2023-01-27T09:32:41.904Z,65.91
2023-01-27T09:37:50.978Z,64.73
2023-01-27T09:43:21.328Z,64.96
2023-01-27T09:48:33.613Z,64.63
2023-01-27T09:53:45.231Z,64.40
2023-01-27T09:59:13.402Z,63.59
2023-01-27T10:04:53.887Z,63.80
2023-01-27T10:10:20.985Z,64.11
2023-01-27T10:15:46.772Z,64.00
2023-01-27T10:21:04.306Z,62.74
2023-01-27T10:26:36.226Z,62.28
2023-01-27T10:31:48.665Z,61.91
2023-01-27T10:37:04.854Z,61.01
2023-01-27T10:42:21.789Z,60.36
2023-01-27T10:47:45.215Z,59.94
2023-01-27T10:53:10.715Z,59.45
2023-01-27T10:58:29.233Z,60.67
2023-01-27T11:03:34.009Z,60.50
2023-01-27T11:08:39.358Z,59.69
2023-01-27T11:13:42.246Z,60.69
2023-01-27T11:18:47.059Z,61.47
2023-01-27T11:23:56.198Z,63.59
2023-01-27T11:29:01.816Z,63.38
2023-01-27T11:34:22.620Z,62.46
2023-01-27T11:39:26.388Z,62.35
2023-01-27T11:44:33.118Z,61.49
2023-01-27T11:49:41.473Z,61.98
2023-01-27T11:54:50.531Z,61.55
2023-01-27T12:00:13.444Z,61.31
2023-01-27T12:05:25.394Z,60.82
2023-01-27T12:10:44.294Z,61.53
2023-01-27T12:16:01.068Z,60.93
2023-01-27T12:21:07.049Z,60.69
2023-01-27T12:26:12.273Z,59.71
2023-01-27T12:31:21.487Z,60.03
2023-01-27T12:36:24.957Z,59.40
2023-01-27T12:41:29.310Z,58.98
2023-01-27T12:46:32.802Z,58.48
2023-01-27T12:51:42.247Z,58.54
2023-01-27T12:56:44.682Z,58.04
2023-01-27T13:02:00.518Z,57.95
2023-01-27T13:07:02.699Z,57.80
2023-01-27T13:12:19.730Z,57.95
2023-01-27T13:17:45.355Z,56.92
2023-01-27T13:22:51.779Z,57.06
2023-01-27T13:27:59.266Z,57.64
2023-01-27T13:33:25.273Z,57.50
2023-01-27T13:38:49.585Z,57.96
2023-01-27T13:44:21.616Z,57.90
2023-01-27T13:49:47.213Z,58.05
2023-01-27T13:54:49.403Z,58.08
2023-01-27T14:00:16.660Z,57.61
2023-01-27T14:05:40.362Z,57.54
2023-01-27T14:11:04.662Z,57.86
2023-01-27T14:16:38.686Z,57.55
2023-01-27T14:21:51.925Z,57.36
2023-01-27T14:27:18.256Z,58.02
2023-01-27T14:32:23.227Z,57.99
2023-01-27T14:37:36.095Z,58.27
2023-01-27T14:43:08.098Z,57.78
2023-01-27T14:48:30.380Z,58.74
2023-01-27T14:54:14.507Z,58.15
2023-01-27T14:59:37.892Z,58.29
2023-01-27T15:04:54.774Z,58.63
2023-01-27T15:10:19.749Z,57.79
2023-01-27T15:15:38.535Z,58.18
2023-01-27T15:21:10.706Z,57.77
2023-01-27T15:26:15.268Z,58.16
2023-01-27T15:31:18.017Z,57.88
2023-01-27T15:36:30.288Z,58.13
2023-01-27T15:41:33.007Z,58.27
2023-01-27T15:46:37.092Z,58.31
2023-01-27T15:51:39.709Z,58.47
2023-01-27T15:57:05.729Z,59.80
2023-01-27T16:02:17.901Z,60.37
2023-01-27T16:07:50.395Z,59.92
2023-01-27T16:13:14.900Z,60.94
2023-01-27T16:18:16.928Z,60.16
2023-01-27T16:23:40.159Z,60.15
2023-01-27T16:28:47.302Z,60.40
2023-01-27T16:33:55.568Z,61.28
2023-01-27T16:39:21.535Z,60.82
2023-01-27T16:44:31.320Z,60.86
2023-01-27T16:49:40.748Z,60.88
2023-01-27T16:54:44.957Z,60.92
2023-01-27T16:59:47.688Z,60.62
2023-01-27T17:04:52.812Z,61.13
2023-01-27T17:10:01.422Z,61.49
2023-01-27T17:15:19.954Z,61.70
2023-01-27T17:20:30.291Z,61.21
2023-01-27T17:25:37.082Z,61.71
2023-01-27T17:30:42.485Z,61.90
2023-01-27T17:35:51.766Z,61.53
2023-01-27T17:40:55.535Z,62.09
2023-01-27T17:46:06.742Z,61.46
2023-01-27T17:51:13.377Z,62.20
2023-01-27T17:56:27.481Z,62.75
2023-01-27T18:01:30.782Z,62.43
2023-01-27T18:06:33.876Z,62.84
2023-01-27T18:11:37.827Z,62.51
2023-01-27T18:16:40.178Z,63.09
2023-01-27T18:21:42.451Z,63.02
2023-01-27T18:26:44.774Z,63.08
2023-01-27T18:31:56.345Z,62.41
2023-01-27T18:36:58.665Z,62.68
2023-01-27T18:42:02.269Z,62.36
2023-01-27T18:47:19.609Z,63.07
2023-01-27T18:52:22.130Z,62.50
2023-01-27T18:57:24.409Z,63.04
2023-01-27T19:02:26.861Z,62.90
2023-01-27T19:07:29.598Z,62.53
2023-01-27T19:12:32.905Z,62.76
2023-01-27T19:17:35.247Z,62.48
2023-01-27T19:22:37.687Z,62.98
2023-01-27T19:27:43.122Z,62.44
2023-01-27T19:32:45.440Z,62.64
2023-01-27T19:37:49.006Z,63.14
2023-01-27T19:42:51.392Z,62.93
2023-01-27T19:47:53.906Z,63.66
2023-01-27T19:52:56.844Z,63.30
2023-01-27T19:57:59.231Z,64.26
2023-01-27T20:03:02.382Z,63.71
2023-01-27T20:08:04.689Z,63.65
2023-01-27T20:13:07.763Z,63.39
2023-01-27T20:18:13.970Z,63.81
2023-01-27T20:23:16.352Z,64.72
2023-01-27T20:28:18.649Z,64.18
2023-01-27T20:33:21.033Z,65.26
2023-01-27T20:38:23.191Z,64.86
2023-01-27T20:43:34.707Z,64.42
2023-01-27T20:48:37.490Z,64.27
2023-01-27T20:53:46.154Z,64.04
2023-01-27T20:58:49.347Z,64.08
2023-01-27T21:03:52.218Z,63.91
2023-01-27T21:08:54.287Z,63.43
2023-01-27T21:13:56.504Z,64.06
2023-01-27T21:18:58.613Z,63.90
2023-01-27T21:24:01.029Z,64.81
2023-01-27T21:29:06.848Z,64.42
2023-01-27T21:34:10.828Z,64.31
2023-01-27T21:39:12.986Z,64.07
2023-01-27T21:44:48.688Z,64.03
2023-01-27T21:50:03.367Z,64.11
2023-01-27T21:55:12.176Z,64.34
2023-01-27T22:00:16.916Z,64.32
2023-01-27T22:05:19.192Z,64.03
2023-01-27T22:10:24.288Z,63.68
2023-01-27T22:15:30.558Z,63.71
2023-01-27T22:20:32.689Z,63.67
2023-01-27T22:25:34.963Z,63.89
2023-01-27T22:30:37.621Z,63.99
2023-01-27T22:35:39.894Z,64.20
2023-01-27T22:40:41.976Z,64.25
2023-01-27T22:45:44.440Z,63.75
2023-01-27T22:50:46.641Z,63.84
2023-01-27T22:56:00.233Z,63.85
2023-01-27T23:01:06.352Z,63.62
2023-01-27T23:06:09.543Z,64.11
2023-01-27T23:11:12.256Z,63.88
2023-01-27T23:16:14.452Z,63.82
2023-01-27T23:21:16.932Z,63.73
2023-01-27T23:26:19.466Z,63.72
2023-01-27T23:31:21.681Z,63.89
2023-01-27T23:36:23.945Z,63.40
2023-01-27T23:41:26.002Z,63.80
2023-01-27T23:46:28.288Z,63.84
2023-01-27T23:51:30.663Z,63.93
2023-01-27T23:56:32.776Z,64.11
